createdAt,value
2018-02-25T00:02:23.074Z,9.13
2018-02-25T00:07:07.508Z,9.17
2018-02-25T00:11:50.812Z,8.20
2018-02-25T00:16:34.145Z,9.20
2018-02-25T00:21:17.467Z,8.73
2018-02-25T00:26:00.801Z,9.77
2018-02-25T00:30:44.137Z,9.30
2018-02-25T00:35:27.446Z,13.27
2018-02-25T00:40:10.831Z,11.63
2018-02-25T00:44:54.162Z,8.47
2018-02-25T00:49:37.543Z,7.77
2018-02-25T00:54:20.892Z,8.27
2018-02-25T00:59:04.992Z,9.63
2018-02-25T01:03:48.344Z,9.07
2018-02-25T01:08:31.960Z,7.90
2018-02-25T01:13:15.293Z,9.17
2018-02-25T01:17:58.689Z,8.57
2018-02-25T01:22:42.082Z,7.13
2018-02-25T01:27:25.473Z,8.23
2018-02-25T01:32:08.829Z,8.97
2018-02-25T01:36:52.159Z,8.53
2018-02-25T01:41:35.516Z,7.83
2018-02-25T01:46:18.887Z,7.90
2018-02-25T01:51:04.957Z,7.37
2018-02-25T01:55:48.325Z,7.67
2018-02-25T02:00:31.685Z,7.53
2018-02-25T02:05:15.066Z,7.67
2018-02-25T02:09:58.401Z,7.53
2018-02-25T02:14:42.404Z,5.87
2018-02-25T02:19:25.711Z,7.73
2018-02-25T02:24:09.864Z,8.17
2018-02-25T02:28:53.219Z,8.27
2018-02-25T02:33:36.615Z,9.47
2018-02-25T02:38:19.954Z,6.50
2018-02-25T02:43:03.290Z,6.07
2018-02-25T02:47:46.724Z,6.83
2018-02-25T02:52:30.401Z,6.87
2018-02-25T02:57:13.787Z,5.90
2018-02-25T03:01:57.974Z,8.27
2018-02-25T03:06:41.370Z,7.20
2018-02-25T03:11:24.762Z,8.37
2018-02-25T03:16:08.122Z,6.47
2018-02-25T03:20:51.704Z,7.20
2018-02-25T03:25:35.268Z,6.77
2018-02-25T03:30:19.408Z,5.97
2018-02-25T03:35:03.561Z,7.53
2018-02-25T03:39:47.209Z,6.20
2018-02-25T03:44:31.047Z,9.03
2018-02-25T03:49:14.621Z,8.13
2018-02-25T03:53:58.726Z,7.37
2018-02-25T03:58:42.123Z,5.50
2018-02-25T04:03:26.237Z,9.97
2018-02-25T04:08:09.587Z,7.03
2018-02-25T04:12:52.947Z,6.50
2018-02-25T04:17:36.758Z,7.03
2018-02-25T04:22:20.075Z,8.63
2018-02-25T04:27:03.486Z,7.37
2018-02-25T04:31:46.857Z,7.37
2018-02-25T04:36:30.209Z,9.60
2018-02-25T04:41:13.559Z,6.27
2018-02-25T04:45:56.916Z,7.60
2018-02-25T04:50:40.244Z,8.23
2018-02-25T04:55:23.547Z,9.00
2018-02-25T05:00:06.923Z,6.13
2018-02-25T05:04:50.215Z,7.80
2018-02-25T05:09:34.367Z,7.13
2018-02-25T05:14:18.499Z,8.07
2018-02-25T05:19:02.095Z,8.87
2018-02-25T05:23:45.435Z,7.40
2018-02-25T05:28:28.821Z,8.67
2018-02-25T05:33:13.036Z,8.47
2018-02-25T05:37:58.303Z,10.63
2018-02-25T05:42:41.819Z,7.63
2018-02-25T05:47:25.203Z,10.77
2018-02-25T05:52:08.577Z,8.20
2018-02-25T05:56:51.937Z,11.77
2018-02-25T06:01:35.888Z,9.00
2018-02-25T06:06:19.224Z,7.60
2018-02-25T06:11:02.559Z,12.40
2018-02-25T06:15:45.948Z,9.23
2018-02-25T06:20:30.340Z,9.40
2018-02-25T06:25:13.734Z,8.70
2018-02-25T06:29:57.138Z,9.13
2018-02-25T06:34:40.476Z,9.20
2018-02-25T06:39:23.834Z,11.40
2018-02-25T06:44:07.186Z,16.53
2018-02-25T06:48:50.594Z,11.10
2018-02-25T06:53:33.964Z,11.53
2018-02-25T06:58:17.299Z,13.83
2018-02-25T07:03:01.000Z,12.17
2018-02-25T07:07:44.379Z,13.20
2018-02-25T07:12:28.004Z,10.07
2018-02-25T07:17:11.392Z,9.73
2018-02-25T07:21:55.587Z,13.87
2018-02-25T07:26:39.090Z,15.13
2018-02-25T07:31:22.476Z,11.40
2018-02-25T07:36:06.104Z,13.93
2018-02-25T07:40:49.509Z,13.20
2018-02-25T07:45:32.875Z,13.43
2018-02-25T07:50:16.212Z,13.90
2018-02-25T07:55:00.509Z,8.63
2018-02-25T07:59:44.583Z,11.97
2018-02-25T08:04:27.951Z,12.67
2018-02-25T08:09:11.316Z,11.17
2018-02-25T08:13:56.566Z,10.90
2018-02-25T08:18:39.983Z,8.37
2018-02-25T08:23:23.379Z,11.10
2018-02-25T08:28:07.536Z,10.57
2018-02-25T08:32:50.872Z,13.47
2018-02-25T08:37:34.282Z,12.33
2018-02-25T08:42:17.663Z,11.53
2018-02-25T08:47:01.154Z,12.30
2018-02-25T08:51:44.488Z,12.10
2018-02-25T08:56:27.866Z,11.67
2018-02-25T09:01:11.244Z,10.17
2018-02-25T09:05:54.624Z,7.60
2018-02-25T09:10:38.823Z,9.73
2018-02-25T09:15:22.380Z,11.33
2018-02-25T09:20:05.894Z,12.93
2018-02-25T09:24:49.377Z,9.80
2018-02-25T09:29:34.022Z,8.27
2018-02-25T09:34:23.020Z,10.37
2018-02-25T09:39:08.490Z,9.73
2018-02-25T09:44:04.065Z,8.10
2018-02-25T09:48:52.908Z,7.43
2018-02-25T09:53:43.849Z,6.20
2018-02-25T09:58:27.797Z,9.87
2018-02-25T10:03:11.615Z,10.00
2018-02-25T10:07:55.049Z,7.87
2018-02-25T10:12:38.708Z,6.60
2018-02-25T10:17:22.271Z,6.40
2018-02-25T10:22:07.522Z,5.97
2018-02-25T10:26:53.349Z,5.80
2018-02-25T10:31:37.653Z,6.07
2018-02-25T10:36:21.032Z,4.87
2018-02-25T10:41:04.446Z,4.30
2018-02-25T10:45:47.838Z,4.40
2018-02-25T10:50:32.149Z,5.27
2018-02-25T10:55:15.484Z,3.27
2018-02-25T10:59:58.989Z,4.83
2018-02-25T11:04:42.490Z,4.17
2018-02-25T11:09:25.913Z,6.67
2018-02-25T11:14:09.437Z,5.67
2018-02-25T11:18:54.290Z,4.73
2018-02-25T11:23:38.455Z,4.33
2018-02-25T11:28:22.628Z,4.47
2018-02-25T11:33:06.456Z,6.87
2018-02-25T11:37:49.812Z,4.70
2018-02-25T11:42:33.916Z,4.80
2018-02-25T11:47:17.378Z,2.83
2018-02-25T11:52:00.711Z,4.70
2018-02-25T11:56:44.059Z,5.00
2018-02-25T12:01:27.511Z,4.20
2018-02-25T12:06:10.805Z,4.13
2018-02-25T12:10:54.234Z,7.67
2018-02-25T12:15:37.599Z,5.73
2018-02-25T12:20:20.944Z,4.77
2018-02-25T12:25:04.371Z,5.03
2018-02-25T12:29:48.605Z,5.17
2018-02-25T12:34:32.927Z,5.23
2018-02-25T12:39:22.414Z,5.97
2018-02-25T12:44:07.110Z,4.37
2018-02-25T12:54:26.472Z,4.07
2018-02-25T12:59:09.791Z,5.37
2018-02-25T13:03:53.154Z,5.13
2018-02-25T13:08:36.664Z,3.77
2018-02-25T13:13:20.070Z,4.07
2018-02-25T13:18:03.809Z,5.17
2018-02-25T13:22:47.264Z,6.33
2018-02-25T13:27:30.615Z,6.63
2018-02-25T13:32:14.934Z,6.77
2018-02-25T13:36:58.636Z,6.47
2018-02-25T13:41:42.294Z,7.77
2018-02-25T13:46:25.693Z,6.17
2018-02-25T13:51:09.174Z,6.53
2018-02-25T14:00:49.884Z,5.93
2018-02-25T14:05:33.273Z,8.37
2018-02-25T14:10:16.620Z,8.40
2018-02-25T14:14:59.998Z,8.67
2018-02-25T14:19:43.301Z,7.10
2018-02-25T14:24:26.659Z,9.77
2018-02-25T14:29:09.996Z,7.90
2018-02-25T14:33:53.368Z,13.27
2018-02-25T14:38:36.763Z,6.53
2018-02-25T14:43:20.365Z,9.00
2018-02-25T14:48:05.434Z,7.27
2018-02-25T14:52:48.876Z,9.10
2018-02-25T14:57:32.391Z,7.53
2018-02-25T15:02:15.774Z,6.97
2018-02-25T15:06:59.922Z,6.60
2018-02-25T15:11:43.403Z,6.67
2018-02-25T15:16:27.598Z,8.10
2018-02-25T15:21:11.763Z,9.43
2018-02-25T15:25:56.041Z,6.10
2018-02-25T15:30:40.315Z,6.50
2018-02-25T15:35:24.422Z,7.53
2018-02-25T15:40:07.795Z,7.37
2018-02-25T15:44:51.477Z,7.03
2018-02-25T15:49:35.547Z,6.53
2018-02-25T15:54:19.069Z,9.93
2018-02-25T15:59:02.435Z,9.17
2018-02-25T16:03:45.853Z,9.90
2018-02-25T16:08:30.124Z,7.90
2018-02-25T16:13:14.633Z,6.53
2018-02-25T16:17:58.032Z,9.27
2018-02-25T16:22:41.528Z,7.90
2018-02-25T16:27:24.966Z,7.77
2018-02-25T16:32:08.325Z,6.43
2018-02-25T16:36:51.670Z,11.17
2018-02-25T16:41:35.966Z,7.40
2018-02-25T16:46:19.337Z,10.40
2018-02-25T16:51:02.667Z,7.37
2018-02-25T16:55:46.017Z,7.73
2018-02-25T17:00:29.388Z,6.60
2018-02-25T17:05:12.736Z,9.23
2018-02-25T17:09:56.100Z,9.03
2018-02-25T17:14:39.455Z,7.50
2018-02-25T17:19:22.816Z,8.40
2018-02-25T17:24:06.265Z,8.50
2018-02-25T17:28:49.595Z,9.50
2018-02-25T17:33:33.207Z,9.50
2018-02-25T17:38:16.560Z,11.17
2018-02-25T17:42:59.915Z,9.10
2018-02-25T17:47:43.276Z,10.23
2018-02-25T17:52:26.713Z,10.43
2018-02-25T17:57:11.746Z,9.47
2018-02-25T18:01:55.643Z,11.83
2018-02-25T18:06:39.542Z,9.00
2018-02-25T18:11:23.059Z,10.67
2018-02-25T18:16:07.021Z,9.50
2018-02-25T18:20:50.457Z,9.27
2018-02-25T18:25:34.234Z,9.17
2018-02-25T18:30:18.360Z,10.23
2018-02-25T18:35:01.916Z,11.03
2018-02-25T18:39:45.252Z,9.50
2018-02-25T18:44:28.879Z,8.43
2018-02-25T18:49:12.462Z,10.20
2018-02-25T18:53:56.293Z,7.57
2018-02-25T18:58:40.593Z,10.23
2018-02-25T19:03:27.812Z,8.60
2018-02-25T19:08:11.358Z,10.40
2018-02-25T19:12:54.803Z,10.10
2018-02-25T19:17:39.528Z,8.57
2018-02-25T19:22:22.941Z,7.17
2018-02-25T19:27:07.055Z,7.33
2018-02-25T19:31:50.418Z,7.47
2018-02-25T19:36:39.399Z,9.00
2018-02-25T19:41:28.700Z,6.87
2018-02-25T19:46:12.186Z,11.70
2018-02-25T19:50:55.632Z,10.10
2018-02-25T19:55:39.314Z,9.13
2018-02-25T20:00:23.463Z,7.57
2018-02-25T20:05:06.976Z,8.77
2018-02-25T20:09:50.471Z,9.23
2018-02-25T20:14:33.917Z,9.17
2018-02-25T20:19:17.597Z,8.97
2018-02-25T20:24:01.016Z,10.10
2018-02-25T20:28:45.242Z,9.70
2018-02-25T20:33:29.705Z,11.57
2018-02-25T20:38:15.959Z,10.43
2018-02-25T20:43:00.318Z,9.30
2018-02-25T20:47:44.843Z,11.83
2018-02-25T20:52:29.162Z,9.20
2018-02-25T20:57:12.523Z,10.13
2018-02-25T21:01:55.980Z,12.37
2018-02-25T21:06:39.665Z,12.27
2018-02-25T21:11:24.084Z,15.57
2018-02-25T21:16:07.535Z,11.47
2018-02-25T21:20:51.029Z,8.07
2018-02-25T21:25:35.240Z,9.40
2018-02-25T21:30:18.688Z,10.73
2018-02-25T21:35:02.900Z,10.73
2018-02-25T21:39:46.349Z,10.17
2018-02-25T21:44:29.985Z,16.10
2018-02-25T21:49:14.370Z,11.63
2018-02-25T21:53:57.685Z,9.67
2018-02-25T21:58:47.496Z,10.13
2018-02-25T22:03:36.795Z,13.03
2018-02-25T22:08:20.327Z,13.47
2018-02-25T22:13:03.755Z,14.93
2018-02-25T22:17:47.356Z,11.23
2018-02-25T22:22:31.075Z,13.07
2018-02-25T22:27:14.546Z,10.67
2018-02-25T22:31:58.668Z,15.07
2018-02-25T22:36:42.139Z,15.43
2018-02-25T22:41:25.574Z,13.57
2018-02-25T22:46:09.010Z,13.50
2018-02-25T22:50:53.392Z,13.00
2018-02-25T22:55:37.051Z,13.50
2018-02-25T23:00:21.091Z,11.77
2018-02-25T23:05:04.471Z,16.30
2018-02-25T23:09:48.648Z,11.67
2018-02-25T23:14:32.002Z,15.10
2018-02-25T23:19:15.395Z,13.40
2018-02-25T23:23:59.116Z,13.07
2018-02-25T23:28:42.562Z,14.30
2018-02-25T23:33:26.033Z,13.23
2018-02-25T23:38:09.434Z,10.43
2018-02-25T23:42:52.832Z,15.27
2018-02-25T23:47:37.076Z,15.17
2018-02-25T23:52:20.476Z,13.80
2018-02-25T23:57:04.108Z,10.03
